sensor_id;sensor_type;location;lat;lon;timestamp;P1;durP1;ratioP1;P2;durP2;ratioP2
67665;SDS011;54448;51.472;-2.574;2023-03-31T00:00:08;16.02;;;2.58;;
67665;SDS011;54448;51.472;-2.574;2023-03-31T00:02:39;13.63;;;2.10;;
67665;SDS011;54448;51.472;-2.574;2023-03-31T00:05:07;23.20;;;2.30;;
67665;SDS011;54448;51.472;-2.574;2023-03-31T00:07:33;19.08;;;1.75;;
67665;SDS011;54448;51.472;-2.574;2023-03-31T00:10:02;17.48;;;2.25;;
67665;SDS011;54448;51.472;-2.574;2023-03-31T00:12:28;11.20;;;1.55;;
67665;SDS011;54448;51.472;-2.574;2023-03-31T00:14:53;14.07;;;1.98;;
67665;SDS011;54448;51.472;-2.574;2023-03-31T00:17:19;13.25;;;1.52;;
67665;SDS011;54448;51.472;-2.574;2023-03-31T00:19:44;20.33;;;2.30;;
67665;SDS011;54448;51.472;-2.574;2023-03-31T00:22:13;25.35;;;2.25;;
67665;SDS011;54448;51.472;-2.574;2023-03-31T00:24:51;18.60;;;1.55;;
67665;SDS011;54448;51.472;-2.574;2023-03-31T00:27:17;14.20;;;1.73;;
67665;SDS011;54448;51.472;-2.574;2023-03-31T00:29:42;17.80;;;2.35;;
67665;SDS011;54448;51.472;-2.574;2023-03-31T00:32:09;14.25;;;1.70;;
67665;SDS011;54448;51.472;-2.574;2023-03-31T00:34:35;21.30;;;2.00;;
67665;SDS011;54448;51.472;-2.574;2023-03-31T00:37:01;26.83;;;2.97;;
67665;SDS011;54448;51.472;-2.574;2023-03-31T00:39:27;31.08;;;3.08;;
67665;SDS011;54448;51.472;-2.574;2023-03-31T00:41:56;29.38;;;3.65;;
67665;SDS011;54448;51.472;-2.574;2023-03-31T00:44:22;37.70;;;4.30;;
67665;SDS011;54448;51.472;-2.574;2023-03-31T00:49:38;47.78;;;3.97;;
67665;SDS011;54448;51.472;-2.574;2023-03-31T00:54:37;39.53;;;4.50;;
67665;SDS011;54448;51.472;-2.574;2023-03-31T00:57:04;52.47;;;5.30;;
67665;SDS011;54448;51.472;-2.574;2023-03-31T00:59:33;50.78;;;5.55;;
67665;SDS011;54448;51.472;-2.574;2023-03-31T01:02:01;33.20;;;4.10;;
67665;SDS011;54448;51.472;-2.574;2023-03-31T01:04:29;46.75;;;5.32;;
67665;SDS011;54448;51.472;-2.574;2023-03-31T01:06:59;31.23;;;3.05;;
67665;SDS011;54448;51.472;-2.574;2023-03-31T01:09:29;32.92;;;3.60;;
67665;SDS011;54448;51.472;-2.574;2023-03-31T01:11:59;30.80;;;3.88;;
67665;SDS011;54448;51.472;-2.574;2023-03-31T01:14:26;28.63;;;2.75;;
67665;SDS011;54448;51.472;-2.574;2023-03-31T01:16:52;22.85;;;2.83;;
67665;SDS011;54448;51.472;-2.574;2023-03-31T01:19:41;30.10;;;3.45;;
67665;SDS011;54448;51.472;-2.574;2023-03-31T01:25:06;26.85;;;3.40;;
67665;SDS011;54448;51.472;-2.574;2023-03-31T01:46:52;45.50;;;4.63;;
67665;SDS011;54448;51.472;-2.574;2023-03-31T01:54:49;48.83;;;5.68;;
67665;SDS011;54448;51.472;-2.574;2023-03-31T01:57:34;45.10;;;5.57;;
67665;SDS011;54448;51.472;-2.574;2023-03-31T02:00:08;45.42;;;5.43;;
67665;SDS011;54448;51.472;-2.574;2023-03-31T02:02:42;35.33;;;4.13;;
67665;SDS011;54448;51.472;-2.574;2023-03-31T02:05:14;49.20;;;4.47;;
67665;SDS011;54448;51.472;-2.574;2023-03-31T02:07:43;34.78;;;4.07;;
67665;SDS011;54448;51.472;-2.574;2023-03-31T02:10:12;37.40;;;4.45;;
67665;SDS011;54448;51.472;-2.574;2023-03-31T02:12:40;36.20;;;4.88;;
67665;SDS011;54448;51.472;-2.574;2023-03-31T02:15:07;42.03;;;5.90;;
67665;SDS011;54448;51.472;-2.574;2023-03-31T02:17:35;46.13;;;4.20;;
67665;SDS011;54448;51.472;-2.574;2023-03-31T02:20:06;52.13;;;4.10;;
67665;SDS011;54448;51.472;-2.574;2023-03-31T02:22:36;44.22;;;5.00;;
67665;SDS011;54448;51.472;-2.574;2023-03-31T02:25:04;39.15;;;4.30;;
67665;SDS011;54448;51.472;-2.574;2023-03-31T02:27:34;41.63;;;4.40;;
67665;SDS011;54448;51.472;-2.574;2023-03-31T02:30:02;42.10;;;5.45;;
67665;SDS011;54448;51.472;-2.574;2023-03-31T02:34:57;46.60;;;4.22;;
67665;SDS011;54448;51.472;-2.574;2023-03-31T02:37:23;24.90;;;3.22;;
67665;SDS011;54448;51.472;-2.574;2023-03-31T02:39:49;31.30;;;3.25;;
67665;SDS011;54448;51.472;-2.574;2023-03-31T02:42:17;38.13;;;4.07;;
67665;SDS011;54448;51.472;-2.574;2023-03-31T02:44:42;34.40;;;3.17;;
67665;SDS011;54448;51.472;-2.574;2023-03-31T02:47:12;25.63;;;3.85;;
67665;SDS011;54448;51.472;-2.574;2023-03-31T02:49:39;20.63;;;2.53;;
67665;SDS011;54448;51.472;-2.574;2023-03-31T03:00:08;25.42;;;2.75;;
67665;SDS011;54448;51.472;-2.574;2023-03-31T03:02:49;19.23;;;1.92;;
67665;SDS011;54448;51.472;-2.574;2023-03-31T03:16:19;17.08;;;2.15;;
67665;SDS011;54448;51.472;-2.574;2023-03-31T03:18:54;23.35;;;2.10;;
67665;SDS011;54448;51.472;-2.574;2023-03-31T03:21:21;11.30;;;1.87;;
67665;SDS011;54448;51.472;-2.574;2023-03-31T03:23:46;17.80;;;1.70;;
67665;SDS011;54448;51.472;-2.574;2023-03-31T03:26:12;18.60;;;2.38;;
67665;SDS011;54448;51.472;-2.574;2023-03-31T03:28:37;17.88;;;2.60;;
67665;SDS011;54448;51.472;-2.574;2023-03-31T03:31:02;19.15;;;2.30;;
67665;SDS011;54448;51.472;-2.574;2023-03-31T03:33:28;27.33;;;3.25;;
67665;SDS011;54448;51.472;-2.574;2023-03-31T03:35:53;19.35;;;2.38;;
67665;SDS011;54448;51.472;-2.574;2023-03-31T03:38:18;22.15;;;1.83;;
67665;SDS011;54448;51.472;-2.574;2023-03-31T03:40:44;37.28;;;3.17;;
67665;SDS011;54448;51.472;-2.574;2023-03-31T03:43:10;23.35;;;2.65;;
67665;SDS011;54448;51.472;-2.574;2023-03-31T03:45:35;32.92;;;2.90;;
67665;SDS011;54448;51.472;-2.574;2023-03-31T03:48:01;22.90;;;2.50;;
67665;SDS011;54448;51.472;-2.574;2023-03-31T03:50:26;22.70;;;2.45;;
67665;SDS011;54448;51.472;-2.574;2023-03-31T03:52:51;26.40;;;2.97;;
67665;SDS011;54448;51.472;-2.574;2023-03-31T03:55:17;30.95;;;3.42;;
67665;SDS011;54448;51.472;-2.574;2023-03-31T03:57:42;32.80;;;3.28;;
67665;SDS011;54448;51.472;-2.574;2023-03-31T04:00:08;22.38;;;3.22;;
67665;SDS011;54448;51.472;-2.574;2023-03-31T04:02:36;28.50;;;3.08;;
67665;SDS011;54448;51.472;-2.574;2023-03-31T04:05:02;25.88;;;3.20;;
67665;SDS011;54448;51.472;-2.574;2023-03-31T04:07:28;36.20;;;3.90;;
67665;SDS011;54448;51.472;-2.574;2023-03-31T04:09:53;22.65;;;3.72;;
67665;SDS011;54448;51.472;-2.574;2023-03-31T04:12:19;26.17;;;2.72;;
67665;SDS011;54448;51.472;-2.574;2023-03-31T04:14:44;30.02;;;2.90;;
67665;SDS011;54448;51.472;-2.574;2023-03-31T04:17:09;29.40;;;4.03;;
67665;SDS011;54448;51.472;-2.574;2023-03-31T04:19:39;37.45;;;3.28;;
67665;SDS011;54448;51.472;-2.574;2023-03-31T04:22:06;46.03;;;4.05;;
67665;SDS011;54448;51.472;-2.574;2023-03-31T04:24:35;32.55;;;4.72;;
67665;SDS011;54448;51.472;-2.574;2023-03-31T04:27:03;31.60;;;3.20;;
67665;SDS011;54448;51.472;-2.574;2023-03-31T04:29:31;29.73;;;2.75;;
67665;SDS011;54448;51.472;-2.574;2023-03-31T04:31:58;28.50;;;2.92;;
67665;SDS011;54448;51.472;-2.574;2023-03-31T04:34:24;29.65;;;3.25;;
67665;SDS011;54448;51.472;-2.574;2023-03-31T04:36:59;30.70;;;3.47;;
67665;SDS011;54448;51.472;-2.574;2023-03-31T04:39:26;22.80;;;2.38;;
67665;SDS011;54448;51.472;-2.574;2023-03-31T04:41:55;27.20;;;3.30;;
67665;SDS011;54448;51.472;-2.574;2023-03-31T04:44:23;18.30;;;2.55;;
67665;SDS011;54448;51.472;-2.574;2023-03-31T04:46:49;20.30;;;2.88;;
67665;SDS011;54448;51.472;-2.574;2023-03-31T04:49:14;14.05;;;1.83;;
67665;SDS011;54448;51.472;-2.574;2023-03-31T04:51:40;15.63;;;2.03;;
67665;SDS011;54448;51.472;-2.574;2023-03-31T04:54:05;14.82;;;1.65;;
67665;SDS011;54448;51.472;-2.574;2023-03-31T04:56:31;13.63;;;2.38;;
67665;SDS011;54448;51.472;-2.574;2023-03-31T04:58:56;14.77;;;1.73;;
67665;SDS011;54448;51.472;-2.574;2023-03-31T05:01:21;15.13;;;1.88;;
67665;SDS011;54448;51.472;-2.574;2023-03-31T05:03:47;17.80;;;1.63;;
67665;SDS011;54448;51.472;-2.574;2023-03-31T05:06:15;8.93;;;1.27;;
67665;SDS011;54448;51.472;-2.574;2023-03-31T05:08:41;9.35;;;1.60;;
67665;SDS011;54448;51.472;-2.574;2023-03-31T05:11:07;15.25;;;2.03;;
67665;SDS011;54448;51.472;-2.574;2023-03-31T05:13:32;15.10;;;2.30;;
67665;SDS011;54448;51.472;-2.574;2023-03-31T05:15:58;15.30;;;1.67;;
67665;SDS011;54448;51.472;-2.574;2023-03-31T05:18:30;26.45;;;2.17;;
67665;SDS011;54448;51.472;-2.574;2023-03-31T05:20:55;15.32;;;2.20;;
67665;SDS011;54448;51.472;-2.574;2023-03-31T05:23:20;18.08;;;2.33;;
67665;SDS011;54448;51.472;-2.574;2023-03-31T05:25:46;10.77;;;1.60;;
67665;SDS011;54448;51.472;-2.574;2023-03-31T05:28:11;18.15;;;2.05;;
67665;SDS011;54448;51.472;-2.574;2023-03-31T05:30:37;9.98;;;1.98;;
67665;SDS011;54448;51.472;-2.574;2023-03-31T05:33:02;12.40;;;1.50;;
67665;SDS011;54448;51.472;-2.574;2023-03-31T05:35:27;17.88;;;1.60;;
67665;SDS011;54448;51.472;-2.574;2023-03-31T05:37:54;14.20;;;1.73;;
67665;SDS011;54448;51.472;-2.574;2023-03-31T05:40:19;18.75;;;2.47;;
67665;SDS011;54448;51.472;-2.574;2023-03-31T05:42:44;19.73;;;2.03;;
67665;SDS011;54448;51.472;-2.574;2023-03-31T05:45:10;22.63;;;3.05;;
67665;SDS011;54448;51.472;-2.574;2023-03-31T05:47:36;18.27;;;2.13;;
67665;SDS011;54448;51.472;-2.574;2023-03-31T05:50:01;10.15;;;2.22;;
67665;SDS011;54448;51.472;-2.574;2023-03-31T05:52:31;17.58;;;2.30;;
67665;SDS011;54448;51.472;-2.574;2023-03-31T05:54:57;17.52;;;1.77;;
67665;SDS011;54448;51.472;-2.574;2023-03-31T05:57:22;23.20;;;2.42;;
67665;SDS011;54448;51.472;-2.574;2023-03-31T05:59:47;17.13;;;2.10;;
67665;SDS011;54448;51.472;-2.574;2023-03-31T06:02:14;7.90;;;1.45;;
67665;SDS011;54448;51.472;-2.574;2023-03-31T06:04:39;11.52;;;1.80;;
67665;SDS011;54448;51.472;-2.574;2023-03-31T06:07:06;12.05;;;1.55;;
67665;SDS011;54448;51.472;-2.574;2023-03-31T06:09:32;16.02;;;2.15;;
67665;SDS011;54448;51.472;-2.574;2023-03-31T06:11:57;18.00;;;1.45;;
67665;SDS011;54448;51.472;-2.574;2023-03-31T06:14:22;8.90;;;1.38;;
67665;SDS011;54448;51.472;-2.574;2023-03-31T06:16:48;11.90;;;1.20;;
67665;SDS011;54448;51.472;-2.574;2023-03-31T06:19:13;11.43;;;1.40;;
67665;SDS011;54448;51.472;-2.574;2023-03-31T06:21:39;10.23;;;1.50;;
67665;SDS011;54448;51.472;-2.574;2023-03-31T06:24:04;9.65;;;1.20;;
67665;SDS011;54448;51.472;-2.574;2023-03-31T06:26:30;17.70;;;3.53;;
67665;SDS011;54448;51.472;-2.574;2023-03-31T06:28:55;8.85;;;1.70;;
67665;SDS011;54448;51.472;-2.574;2023-03-31T06:31:22;13.63;;;1.80;;
67665;SDS011;54448;51.472;-2.574;2023-03-31T06:33:48;13.60;;;1.70;;
67665;SDS011;54448;51.472;-2.574;2023-03-31T06:36:14;12.55;;;1.70;;
67665;SDS011;54448;51.472;-2.574;2023-03-31T06:38:41;18.52;;;2.67;;
67665;SDS011;54448;51.472;-2.574;2023-03-31T06:41:07;26.30;;;2.22;;
67665;SDS011;54448;51.472;-2.574;2023-03-31T06:43:33;18.92;;;3.85;;
67665;SDS011;54448;51.472;-2.574;2023-03-31T06:45:58;10.60;;;1.58;;
67665;SDS011;54448;51.472;-2.574;2023-03-31T06:48:24;15.35;;;2.30;;
67665;SDS011;54448;51.472;-2.574;2023-03-31T06:50:50;19.58;;;2.25;;
67665;SDS011;54448;51.472;-2.574;2023-03-31T06:53:15;26.95;;;3.28;;
67665;SDS011;54448;51.472;-2.574;2023-03-31T06:55:41;19.38;;;2.25;;
67665;SDS011;54448;51.472;-2.574;2023-03-31T06:58:06;22.27;;;2.55;;
67665;SDS011;54448;51.472;-2.574;2023-03-31T07:00:32;19.40;;;2.80;;
67665;SDS011;54448;51.472;-2.574;2023-03-31T07:02:58;17.80;;;3.30;;
67665;SDS011;54448;51.472;-2.574;2023-03-31T07:05:23;22.38;;;2.70;;
67665;SDS011;54448;51.472;-2.574;2023-03-31T07:07:54;19.77;;;2.65;;
67665;SDS011;54448;51.472;-2.574;2023-03-31T07:10:21;26.55;;;2.28;;
67665;SDS011;54448;51.472;-2.574;2023-03-31T07:12:47;18.27;;;2.72;;
67665;SDS011;54448;51.472;-2.574;2023-03-31T07:15:12;18.63;;;2.78;;
67665;SDS011;54448;51.472;-2.574;2023-03-31T07:17:38;26.88;;;2.65;;
67665;SDS011;54448;51.472;-2.574;2023-03-31T07:20:06;25.55;;;3.13;;
67665;SDS011;54448;51.472;-2.574;2023-03-31T07:22:45;13.07;;;2.80;;
67665;SDS011;54448;51.472;-2.574;2023-03-31T07:25:12;25.92;;;3.17;;
67665;SDS011;54448;51.472;-2.574;2023-03-31T07:27:39;29.50;;;3.17;;
67665;SDS011;54448;51.472;-2.574;2023-03-31T07:30:06;15.07;;;2.20;;
67665;SDS011;54448;51.472;-2.574;2023-03-31T07:32:32;13.25;;;2.70;;
67665;SDS011;54448;51.472;-2.574;2023-03-31T07:34:58;10.40;;;2.58;;
67665;SDS011;54448;51.472;-2.574;2023-03-31T07:37:23;16.92;;;3.63;;
67665;SDS011;54448;51.472;-2.574;2023-03-31T07:39:49;17.55;;;3.63;;
67665;SDS011;54448;51.472;-2.574;2023-03-31T07:42:15;14.27;;;4.10;;
67665;SDS011;54448;51.472;-2.574;2023-03-31T07:44:40;11.60;;;4.05;;
67665;SDS011;54448;51.472;-2.574;2023-03-31T07:47:05;18.50;;;3.58;;
67665;SDS011;54448;51.472;-2.574;2023-03-31T07:49:31;11.43;;;2.60;;
67665;SDS011;54448;51.472;-2.574;2023-03-31T07:51:57;13.27;;;3.20;;
67665;SDS011;54448;51.472;-2.574;2023-03-31T07:54:22;15.20;;;2.97;;
67665;SDS011;54448;51.472;-2.574;2023-03-31T07:56:48;13.23;;;4.28;;
67665;SDS011;54448;51.472;-2.574;2023-03-31T07:59:13;17.20;;;4.20;;
67665;SDS011;54448;51.472;-2.574;2023-03-31T08:01:39;12.13;;;3.60;;
67665;SDS011;54448;51.472;-2.574;2023-03-31T08:04:05;18.40;;;4.72;;
67665;SDS011;54448;51.472;-2.574;2023-03-31T08:06:30;17.00;;;3.97;;
67665;SDS011;54448;51.472;-2.574;2023-03-31T08:08:55;12.73;;;3.28;;
67665;SDS011;54448;51.472;-2.574;2023-03-31T08:11:21;13.35;;;3.65;;
67665;SDS011;54448;51.472;-2.574;2023-03-31T08:13:47;12.73;;;2.90;;
67665;SDS011;54448;51.472;-2.574;2023-03-31T08:16:13;17.25;;;2.97;;
67665;SDS011;54448;51.472;-2.574;2023-03-31T08:18:39;10.68;;;2.67;;
67665;SDS011;54448;51.472;-2.574;2023-03-31T08:21:04;11.88;;;2.67;;
67665;SDS011;54448;51.472;-2.574;2023-03-31T08:23:31;14.55;;;2.60;;
67665;SDS011;54448;51.472;-2.574;2023-03-31T08:26:17;14.18;;;2.40;;
67665;SDS011;54448;51.472;-2.574;2023-03-31T08:28:42;10.48;;;2.33;;
67665;SDS011;54448;51.472;-2.574;2023-03-31T08:31:08;11.45;;;2.22;;
67665;SDS011;54448;51.472;-2.574;2023-03-31T08:33:34;10.48;;;2.00;;
67665;SDS011;54448;51.472;-2.574;2023-03-31T08:36:02;6.90;;;1.88;;
67665;SDS011;54448;51.472;-2.574;2023-03-31T08:38:28;4.88;;;1.77;;
67665;SDS011;54448;51.472;-2.574;2023-03-31T08:40:58;7.80;;;1.92;;
67665;SDS011;54448;51.472;-2.574;2023-03-31T08:43:26;8.05;;;1.95;;
67665;SDS011;54448;51.472;-2.574;2023-03-31T08:45:54;7.18;;;1.77;;
67665;SDS011;54448;51.472;-2.574;2023-03-31T08:48:24;8.63;;;1.85;;
67665;SDS011;54448;51.472;-2.574;2023-03-31T08:50:56;8.70;;;1.90;;
67665;SDS011;54448;51.472;-2.574;2023-03-31T08:53:32;10.68;;;1.70;;
67665;SDS011;54448;51.472;-2.574;2023-03-31T08:56:01;5.80;;;2.10;;
67665;SDS011;54448;51.472;-2.574;2023-03-31T08:58:31;8.27;;;2.75;;
67665;SDS011;54448;51.472;-2.574;2023-03-31T09:06:24;7.07;;;2.38;;
67665;SDS011;54448;51.472;-2.574;2023-03-31T09:11:34;8.55;;;2.20;;
67665;SDS011;54448;51.472;-2.574;2023-03-31T09:17:09;7.13;;;2.55;;
67665;SDS011;54448;51.472;-2.574;2023-03-31T09:19:53;9.50;;;3.25;;
67665;SDS011;54448;51.472;-2.574;2023-03-31T09:22:24;13.40;;;3.80;;
67665;SDS011;54448;51.472;-2.574;2023-03-31T09:27:26;18.60;;;4.40;;
67665;SDS011;54448;51.472;-2.574;2023-03-31T09:29:57;14.02;;;4.53;;
67665;SDS011;54448;51.472;-2.574;2023-03-31T09:32:27;13.52;;;4.18;;
67665;SDS011;54448;51.472;-2.574;2023-03-31T09:35:01;17.27;;;5.32;;
67665;SDS011;54448;51.472;-2.574;2023-03-31T09:37:43;21.15;;;5.25;;
67665;SDS011;54448;51.472;-2.574;2023-03-31T09:40:18;14.05;;;4.85;;
67665;SDS011;54448;51.472;-2.574;2023-03-31T09:42:50;17.35;;;4.50;;
67665;SDS011;54448;51.472;-2.574;2023-03-31T09:45:20;13.23;;;4.85;;
67665;SDS011;54448;51.472;-2.574;2023-03-31T09:47:55;13.40;;;3.78;;
67665;SDS011;54448;51.472;-2.574;2023-03-31T09:50:22;11.20;;;4.22;;
67665;SDS011;54448;51.472;-2.574;2023-03-31T09:52:52;9.75;;;3.92;;
67665;SDS011;54448;51.472;-2.574;2023-03-31T09:57:47;11.43;;;3.63;;
67665;SDS011;54448;51.472;-2.574;2023-03-31T10:00:19;10.50;;;3.30;;
67665;SDS011;54448;51.472;-2.574;2023-03-31T10:02:53;15.70;;;3.38;;
67665;SDS011;54448;51.472;-2.574;2023-03-31T10:10:45;12.43;;;2.60;;
67665;SDS011;54448;51.472;-2.574;2023-03-31T10:13:14;7.85;;;2.13;;
67665;SDS011;54448;51.472;-2.574;2023-03-31T10:15:41;10.18;;;2.13;;
67665;SDS011;54448;51.472;-2.574;2023-03-31T10:18:13;7.30;;;2.05;;
67665;SDS011;54448;51.472;-2.574;2023-03-31T10:20:42;10.73;;;2.10;;
67665;SDS011;54448;51.472;-2.574;2023-03-31T10:23:29;4.47;;;1.73;;
67665;SDS011;54448;51.472;-2.574;2023-03-31T10:25:56;10.05;;;1.88;;
67665;SDS011;54448;51.472;-2.574;2023-03-31T10:28:22;8.50;;;2.08;;
67665;SDS011;54448;51.472;-2.574;2023-03-31T10:30:49;5.40;;;1.80;;
67665;SDS011;54448;51.472;-2.574;2023-03-31T10:33:21;5.72;;;2.25;;
67665;SDS011;54448;51.472;-2.574;2023-03-31T10:35:56;5.63;;;1.80;;
67665;SDS011;54448;51.472;-2.574;2023-03-31T10:38:29;3.72;;;1.92;;
67665;SDS011;54448;51.472;-2.574;2023-03-31T10:41:06;7.32;;;1.98;;
67665;SDS011;54448;51.472;-2.574;2023-03-31T10:43:35;13.00;;;2.75;;
67665;SDS011;54448;51.472;-2.574;2023-03-31T10:46:08;5.25;;;2.03;;
67665;SDS011;54448;51.472;-2.574;2023-03-31T10:48:34;6.35;;;2.25;;
67665;SDS011;54448;51.472;-2.574;2023-03-31T10:51:25;7.43;;;2.85;;
67665;SDS011;54448;51.472;-2.574;2023-03-31T10:53:52;9.38;;;2.92;;
67665;SDS011;54448;51.472;-2.574;2023-03-31T10:56:38;8.85;;;3.05;;
67665;SDS011;54448;51.472;-2.574;2023-03-31T10:59:22;10.25;;;3.83;;
67665;SDS011;54448;51.472;-2.574;2023-03-31T11:07:23;8.20;;;2.60;;
67665;SDS011;54448;51.472;-2.574;2023-03-31T11:29:29;9.38;;;2.25;;
67665;SDS011;54448;51.472;-2.574;2023-03-31T11:42:23;9.82;;;2.35;;
67665;SDS011;54448;51.472;-2.574;2023-03-31T11:44:52;10.00;;;2.85;;
67665;SDS011;54448;51.472;-2.574;2023-03-31T11:47:21;7.53;;;2.20;;
67665;SDS011;54448;51.472;-2.574;2023-03-31T11:49:50;5.07;;;1.70;;
67665;SDS011;54448;51.472;-2.574;2023-03-31T11:52:24;7.30;;;1.98;;
67665;SDS011;54448;51.472;-2.574;2023-03-31T12:02:56;6.93;;;1.33;;
67665;SDS011;54448;51.472;-2.574;2023-03-31T12:05:23;6.93;;;1.92;;
67665;SDS011;54448;51.472;-2.574;2023-03-31T12:07:57;13.52;;;2.17;;
67665;SDS011;54448;51.472;-2.574;2023-03-31T12:10:35;12.30;;;3.03;;
67665;SDS011;54448;51.472;-2.574;2023-03-31T12:16:00;13.05;;;3.28;;
67665;SDS011;54448;51.472;-2.574;2023-03-31T12:18:35;16.02;;;3.03;;
67665;SDS011;54448;51.472;-2.574;2023-03-31T12:21:04;13.23;;;3.10;;
67665;SDS011;54448;51.472;-2.574;2023-03-31T12:23:33;17.38;;;2.47;;
67665;SDS011;54448;51.472;-2.574;2023-03-31T12:28:47;17.42;;;2.72;;
67665;SDS011;54448;51.472;-2.574;2023-03-31T12:31:16;14.70;;;3.20;;
67665;SDS011;54448;51.472;-2.574;2023-03-31T12:33:45;10.95;;;2.15;;
67665;SDS011;54448;51.472;-2.574;2023-03-31T12:44:56;13.60;;;2.78;;
67665;SDS011;54448;51.472;-2.574;2023-03-31T12:47:29;12.90;;;2.58;;
67665;SDS011;54448;51.472;-2.574;2023-03-31T12:55:44;9.40;;;1.95;;
67665;SDS011;54448;51.472;-2.574;2023-03-31T13:06:58;6.88;;;1.52;;
67665;SDS011;54448;51.472;-2.574;2023-03-31T13:11:37;6.15;;;1.25;;
67665;SDS011;54448;51.472;-2.574;2023-03-31T13:16:41;9.07;;;1.85;;
67665;SDS011;54448;51.472;-2.574;2023-03-31T13:19:08;4.85;;;1.25;;
67665;SDS011;54448;51.472;-2.574;2023-03-31T13:21:52;7.90;;;2.28;;
67665;SDS011;54448;51.472;-2.574;2023-03-31T13:24:20;12.13;;;2.05;;
67665;SDS011;54448;51.472;-2.574;2023-03-31T13:26:46;12.80;;;2.17;;
67665;SDS011;54448;51.472;-2.574;2023-03-31T13:34:32;15.13;;;3.20;;
67665;SDS011;54448;51.472;-2.574;2023-03-31T13:47:56;16.02;;;2.28;;
67665;SDS011;54448;51.472;-2.574;2023-03-31T14:01:53;11.57;;;1.80;;
67665;SDS011;54448;51.472;-2.574;2023-03-31T14:07:49;17.48;;;2.53;;
67665;SDS011;54448;51.472;-2.574;2023-03-31T14:13:05;19.50;;;1.67;;
67665;SDS011;54448;51.472;-2.574;2023-03-31T14:15:31;16.40;;;2.30;;
67665;SDS011;54448;51.472;-2.574;2023-03-31T14:17:57;13.73;;;2.05;;
67665;SDS011;54448;51.472;-2.574;2023-03-31T14:28:48;17.98;;;2.10;;
67665;SDS011;54448;51.472;-2.574;2023-03-31T14:31:40;21.55;;;2.47;;
67665;SDS011;54448;51.472;-2.574;2023-03-31T14:36:56;22.08;;;2.17;;
67665;SDS011;54448;51.472;-2.574;2023-03-31T14:39:23;22.65;;;2.97;;
67665;SDS011;54448;51.472;-2.574;2023-03-31T14:41:52;19.80;;;2.38;;
67665;SDS011;54448;51.472;-2.574;2023-03-31T14:44:18;14.48;;;2.38;;
67665;SDS011;54448;51.472;-2.574;2023-03-31T14:46:44;22.30;;;2.63;;
67665;SDS011;54448;51.472;-2.574;2023-03-31T14:49:20;17.05;;;2.80;;
67665;SDS011;54448;51.472;-2.574;2023-03-31T14:51:51;10.60;;;1.83;;
67665;SDS011;54448;51.472;-2.574;2023-03-31T14:54:18;12.60;;;1.98;;
67665;SDS011;54448;51.472;-2.574;2023-03-31T14:56:45;11.30;;;2.08;;
67665;SDS011;54448;51.472;-2.574;2023-03-31T14:59:18;11.27;;;2.20;;
67665;SDS011;54448;51.472;-2.574;2023-03-31T15:01:45;18.08;;;2.60;;
67665;SDS011;54448;51.472;-2.574;2023-03-31T15:04:12;10.05;;;1.67;;
67665;SDS011;54448;51.472;-2.574;2023-03-31T15:06:39;22.92;;;2.35;;
67665;SDS011;54448;51.472;-2.574;2023-03-31T15:09:06;13.18;;;1.98;;
67665;SDS011;54448;51.472;-2.574;2023-03-31T15:11:34;14.50;;;1.85;;
67665;SDS011;54448;51.472;-2.574;2023-03-31T15:14:00;12.57;;;2.00;;
67665;SDS011;54448;51.472;-2.574;2023-03-31T15:19:10;11.85;;;1.83;;
67665;SDS011;54448;51.472;-2.574;2023-03-31T15:21:39;6.90;;;1.65;;
67665;SDS011;54448;51.472;-2.574;2023-03-31T15:24:05;13.93;;;1.65;;
67665;SDS011;54448;51.472;-2.574;2023-03-31T15:26:35;9.25;;;1.80;;
67665;SDS011;54448;51.472;-2.574;2023-03-31T15:29:44;12.77;;;1.85;;
67665;SDS011;54448;51.472;-2.574;2023-03-31T15:31:55;17.63;;;2.13;;
67665;SDS011;54448;51.472;-2.574;2023-03-31T15:34:31;11.00;;;1.92;;
67665;SDS011;54448;51.472;-2.574;2023-03-31T15:36:58;13.35;;;2.15;;
67665;SDS011;54448;51.472;-2.574;2023-03-31T15:39:25;14.68;;;2.92;;
67665;SDS011;54448;51.472;-2.574;2023-03-31T15:41:52;16.08;;;3.13;;
67665;SDS011;54448;51.472;-2.574;2023-03-31T15:46:56;14.75;;;2.03;;
67665;SDS011;54448;51.472;-2.574;2023-03-31T15:49:23;7.82;;;1.40;;
67665;SDS011;54448;51.472;-2.574;2023-03-31T15:51:49;8.27;;;2.05;;
67665;SDS011;54448;51.472;-2.574;2023-03-31T15:57:04;9.35;;;2.30;;
67665;SDS011;54448;51.472;-2.574;2023-03-31T15:59:31;10.05;;;2.30;;
67665;SDS011;54448;51.472;-2.574;2023-03-31T16:02:13;8.23;;;2.03;;
67665;SDS011;54448;51.472;-2.574;2023-03-31T16:04:41;11.90;;;1.83;;
67665;SDS011;54448;51.472;-2.574;2023-03-31T16:07:14;15.40;;;2.53;;
67665;SDS011;54448;51.472;-2.574;2023-03-31T16:09:52;14.88;;;2.42;;
67665;SDS011;54448;51.472;-2.574;2023-03-31T16:12:22;14.90;;;3.15;;
67665;SDS011;54448;51.472;-2.574;2023-03-31T16:14:51;8.15;;;2.00;;
67665;SDS011;54448;51.472;-2.574;2023-03-31T16:19:57;10.45;;;2.30;;
67665;SDS011;54448;51.472;-2.574;2023-03-31T16:22:28;11.40;;;2.00;;
67665;SDS011;54448;51.472;-2.574;2023-03-31T16:24:58;10.75;;;1.70;;
67665;SDS011;54448;51.472;-2.574;2023-03-31T16:27:23;15.05;;;2.17;;
67665;SDS011;54448;51.472;-2.574;2023-03-31T16:29:48;11.68;;;1.95;;
67665;SDS011;54448;51.472;-2.574;2023-03-31T16:32:16;13.63;;;3.80;;
67665;SDS011;54448;51.472;-2.574;2023-03-31T16:37:18;14.35;;;2.53;;
67665;SDS011;54448;51.472;-2.574;2023-03-31T16:39:43;13.27;;;2.80;;
67665;SDS011;54448;51.472;-2.574;2023-03-31T16:42:08;16.27;;;2.88;;
67665;SDS011;54448;51.472;-2.574;2023-03-31T16:44:34;16.35;;;3.15;;
67665;SDS011;54448;51.472;-2.574;2023-03-31T16:47:00;13.68;;;2.70;;
67665;SDS011;54448;51.472;-2.574;2023-03-31T16:49:25;13.20;;;2.75;;
67665;SDS011;54448;51.472;-2.574;2023-03-31T16:51:51;12.88;;;2.38;;
67665;SDS011;54448;51.472;-2.574;2023-03-31T16:54:16;12.43;;;2.80;;
67665;SDS011;54448;51.472;-2.574;2023-03-31T16:56:42;13.68;;;2.80;;
67665;SDS011;54448;51.472;-2.574;2023-03-31T16:59:07;17.88;;;3.72;;
67665;SDS011;54448;51.472;-2.574;2023-03-31T17:01:33;16.88;;;2.90;;
67665;SDS011;54448;51.472;-2.574;2023-03-31T17:03:58;21.88;;;3.55;;
67665;SDS011;54448;51.472;-2.574;2023-03-31T17:06:24;18.45;;;2.90;;
67665;SDS011;54448;51.472;-2.574;2023-03-31T17:08:49;18.85;;;4.13;;
67665;SDS011;54448;51.472;-2.574;2023-03-31T17:11:15;15.60;;;3.45;;
67665;SDS011;54448;51.472;-2.574;2023-03-31T17:13:40;19.70;;;2.47;;
67665;SDS011;54448;51.472;-2.574;2023-03-31T17:16:08;18.80;;;3.00;;
67665;SDS011;54448;51.472;-2.574;2023-03-31T17:18:35;16.95;;;3.58;;
67665;SDS011;54448;51.472;-2.574;2023-03-31T17:21:01;15.88;;;3.30;;
67665;SDS011;54448;51.472;-2.574;2023-03-31T17:23:30;17.02;;;3.38;;
67665;SDS011;54448;51.472;-2.574;2023-03-31T17:25:56;17.63;;;3.40;;
67665;SDS011;54448;51.472;-2.574;2023-03-31T17:28:21;24.80;;;3.70;;
67665;SDS011;54448;51.472;-2.574;2023-03-31T17:30:46;19.00;;;3.97;;
67665;SDS011;54448;51.472;-2.574;2023-03-31T17:33:13;21.63;;;3.72;;
67665;SDS011;54448;51.472;-2.574;2023-03-31T17:35:39;15.98;;;3.83;;
67665;SDS011;54448;51.472;-2.574;2023-03-31T17:38:05;21.20;;;3.53;;
67665;SDS011;54448;51.472;-2.574;2023-03-31T17:40:33;13.32;;;3.42;;
67665;SDS011;54448;51.472;-2.574;2023-03-31T17:42:59;16.70;;;3.72;;
67665;SDS011;54448;51.472;-2.574;2023-03-31T17:45:26;18.00;;;3.55;;
67665;SDS011;54448;51.472;-2.574;2023-03-31T17:47:53;24.70;;;4.10;;
67665;SDS011;54448;51.472;-2.574;2023-03-31T17:50:18;12.70;;;3.78;;
67665;SDS011;54448;51.472;-2.574;2023-03-31T17:52:44;15.27;;;3.63;;
67665;SDS011;54448;51.472;-2.574;2023-03-31T17:55:10;14.45;;;2.75;;
67665;SDS011;54448;51.472;-2.574;2023-03-31T17:57:36;19.60;;;3.33;;
67665;SDS011;54448;51.472;-2.574;2023-03-31T18:00:03;11.23;;;3.60;;